Station: EBLB - 21/02/2020 20:55Z (il y a 24 minutes)
EBLB 212055Z AUTO 22008KT 9999 BKN200/// 02/00 Q1025 BLU
Vent du 220º - 8 kt
Visibilité > 10 km
Ciel 75% couvert à 20000 pieds
Température: +02ºC - Point de rosée: +00ºC - QNH: 1025 hPa
Code couleur militaire: BLU (conditions VMC)